sensor_id;sensor_type;location;lat;lon;timestamp;temperature;humidity
6538;DHT22;3302;52.508;13.454;2022-12-18T00:01:03;-5.60;99.90
6538;DHT22;3302;52.508;13.454;2022-12-18T00:03:35;-5.50;99.90
6538;DHT22;3302;52.508;13.454;2022-12-18T00:06:02;-5.50;99.90
6538;DHT22;3302;52.508;13.454;2022-12-18T00:08:28;-5.60;99.90
6538;DHT22;3302;52.508;13.454;2022-12-18T00:10:54;-5.70;99.90
6538;DHT22;3302;52.508;13.454;2022-12-18T00:13:20;-5.60;99.90
6538;DHT22;3302;52.508;13.454;2022-12-18T00:15:46;-5.60;99.90
6538;DHT22;3302;52.508;13.454;2022-12-18T00:18:12;-5.60;99.90
6538;DHT22;3302;52.508;13.454;2022-12-18T00:20:39;-5.60;99.90
6538;DHT22;3302;52.508;13.454;2022-12-18T00:23:06;-5.50;99.90
6538;DHT22;3302;52.508;13.454;2022-12-18T00:25:34;-5.30;99.90
6538;DHT22;3302;52.508;13.454;2022-12-18T00:28:00;-5.20;99.90
6538;DHT22;3302;52.508;13.454;2022-12-18T00:30:26;-5.30;99.90
6538;DHT22;3302;52.508;13.454;2022-12-18T00:32:52;-5.30;99.90
6538;DHT22;3302;52.508;13.454;2022-12-18T00:35:18;-5.40;99.90
6538;DHT22;3302;52.508;13.454;2022-12-18T00:37:44;-5.50;99.90
6538;DHT22;3302;52.508;13.454;2022-12-18T00:40:10;-5.40;99.90
6538;DHT22;3302;52.508;13.454;2022-12-18T00:42:36;-5.50;99.90
6538;DHT22;3302;52.508;13.454;2022-12-18T00:45:20;-5.50;99.90
6538;DHT22;3302;52.508;13.454;2022-12-18T00:47:46;-5.70;99.90
6538;DHT22;3302;52.508;13.454;2022-12-18T00:50:12;-5.80;99.90
6538;DHT22;3302;52.508;13.454;2022-12-18T00:52:39;-5.70;99.90
6538;DHT22;3302;52.508;13.454;2022-12-18T00:55:05;-5.80;99.90
6538;DHT22;3302;52.508;13.454;2022-12-18T00:57:31;-5.90;99.90
6538;DHT22;3302;52.508;13.454;2022-12-18T00:59:57;-6.00;99.90
6538;DHT22;3302;52.508;13.454;2022-12-18T01:02:23;-6.00;99.90
6538;DHT22;3302;52.508;13.454;2022-12-18T01:04:48;-5.80;99.90
6538;DHT22;3302;52.508;13.454;2022-12-18T01:07:14;-5.80;99.90
6538;DHT22;3302;52.508;13.454;2022-12-18T01:09:40;-5.90;99.90
6538;DHT22;3302;52.508;13.454;2022-12-18T01:12:06;-6.00;99.90
6538;DHT22;3302;52.508;13.454;2022-12-18T01:14:32;-5.90;99.90
6538;DHT22;3302;52.508;13.454;2022-12-18T01:16:58;-5.80;99.90
6538;DHT22;3302;52.508;13.454;2022-12-18T01:19:23;-5.70;99.90
6538;DHT22;3302;52.508;13.454;2022-12-18T01:21:49;-5.80;99.90
6538;DHT22;3302;52.508;13.454;2022-12-18T01:24:15;-6.00;99.90
6538;DHT22;3302;52.508;13.454;2022-12-18T01:26:41;-6.30;99.90
6538;DHT22;3302;52.508;13.454;2022-12-18T01:29:07;-6.40;99.90
6538;DHT22;3302;52.508;13.454;2022-12-18T01:31:33;-6.20;99.90
6538;DHT22;3302;52.508;13.454;2022-12-18T01:34:04;-6.00;99.90
6538;DHT22;3302;52.508;13.454;2022-12-18T01:36:32;-6.10;99.90
6538;DHT22;3302;52.508;13.454;2022-12-18T01:39:07;-6.20;99.90
6538;DHT22;3302;52.508;13.454;2022-12-18T01:41:34;-6.20;99.90
6538;DHT22;3302;52.508;13.454;2022-12-18T01:47:38;-5.80;99.90
6538;DHT22;3302;52.508;13.454;2022-12-18T01:50:14;-5.90;99.90
6538;DHT22;3302;52.508;13.454;2022-12-18T01:52:43;-6.20;99.90
6538;DHT22;3302;52.508;13.454;2022-12-18T01:55:11;-6.20;99.90
6538;DHT22;3302;52.508;13.454;2022-12-18T01:57:39;-6.20;99.90
6538;DHT22;3302;52.508;13.454;2022-12-18T02:00:10;-6.30;99.90
6538;DHT22;3302;52.508;13.454;2022-12-18T02:02:36;-6.40;99.90
6538;DHT22;3302;52.508;13.454;2022-12-18T02:05:03;-6.40;99.90
6538;DHT22;3302;52.508;13.454;2022-12-18T02:10:04;-6.20;99.90
6538;DHT22;3302;52.508;13.454;2022-12-18T02:18:37;-6.20;99.90
6538;DHT22;3302;52.508;13.454;2022-12-18T02:26:34;-6.30;99.90
6538;DHT22;3302;52.508;13.454;2022-12-18T02:29:15;-6.40;99.90
6538;DHT22;3302;52.508;13.454;2022-12-18T02:31:52;-6.50;99.90
6538;DHT22;3302;52.508;13.454;2022-12-18T02:34:20;-6.40;99.90
6538;DHT22;3302;52.508;13.454;2022-12-18T02:36:48;-6.20;99.90
6538;DHT22;3302;52.508;13.454;2022-12-18T02:39:16;-6.10;99.90
6538;DHT22;3302;52.508;13.454;2022-12-18T02:41:43;-6.10;99.90
6538;DHT22;3302;52.508;13.454;2022-12-18T02:44:11;-6.20;99.90
6538;DHT22;3302;52.508;13.454;2022-12-18T02:46:42;-6.20;99.90
6538;DHT22;3302;52.508;13.454;2022-12-18T02:52:20;-6.30;99.90
6538;DHT22;3302;52.508;13.454;2022-12-18T02:57:49;-6.30;99.90
6538;DHT22;3302;52.508;13.454;2022-12-18T03:02:58;-6.20;99.90
6538;DHT22;3302;52.508;13.454;2022-12-18T03:05:30;-6.20;99.90
6538;DHT22;3302;52.508;13.454;2022-12-18T03:08:02;-6.20;99.90
6538;DHT22;3302;52.508;13.454;2022-12-18T03:10:32;-6.10;99.90
6538;DHT22;3302;52.508;13.454;2022-12-18T03:13:13;-6.20;99.90
6538;DHT22;3302;52.508;13.454;2022-12-18T03:15:47;-6.20;99.90
6538;DHT22;3302;52.508;13.454;2022-12-18T03:18:18;-6.30;99.90
6538;DHT22;3302;52.508;13.454;2022-12-18T03:20:47;-6.20;99.90
6538;DHT22;3302;52.508;13.454;2022-12-18T03:23:20;-6.10;99.90
6538;DHT22;3302;52.508;13.454;2022-12-18T03:25:49;-6.10;99.90
6538;DHT22;3302;52.508;13.454;2022-12-18T03:28:20;-6.10;99.90
6538;DHT22;3302;52.508;13.454;2022-12-18T03:30:53;-6.20;99.90
6538;DHT22;3302;52.508;13.454;2022-12-18T03:33:27;-6.40;99.90
6538;DHT22;3302;52.508;13.454;2022-12-18T03:35:55;-6.40;99.90
6538;DHT22;3302;52.508;13.454;2022-12-18T03:38:21;-6.50;99.90
6538;DHT22;3302;52.508;13.454;2022-12-18T03:40:56;-6.50;99.90
6538;DHT22;3302;52.508;13.454;2022-12-18T03:46:08;-6.30;99.90
6538;DHT22;3302;52.508;13.454;2022-12-18T03:48:44;-6.40;99.90
6538;DHT22;3302;52.508;13.454;2022-12-18T03:51:20;-6.50;99.90
6538;DHT22;3302;52.508;13.454;2022-12-18T03:54:02;-6.60;99.90
6538;DHT22;3302;52.508;13.454;2022-12-18T03:56:33;-6.60;99.90
6538;DHT22;3302;52.508;13.454;2022-12-18T03:59:03;-6.50;99.90
6538;DHT22;3302;52.508;13.454;2022-12-18T04:01:37;-6.50;99.90
6538;DHT22;3302;52.508;13.454;2022-12-18T04:04:04;-6.50;99.90
6538;DHT22;3302;52.508;13.454;2022-12-18T04:06:31;-6.60;99.90
6538;DHT22;3302;52.508;13.454;2022-12-18T04:08:58;-6.40;99.90
6538;DHT22;3302;52.508;13.454;2022-12-18T04:11:25;-6.30;99.90
6538;DHT22;3302;52.508;13.454;2022-12-18T04:13:55;-6.30;99.90
6538;DHT22;3302;52.508;13.454;2022-12-18T04:16:22;-6.30;99.90
6538;DHT22;3302;52.508;13.454;2022-12-18T04:18:48;-6.30;99.90
6538;DHT22;3302;52.508;13.454;2022-12-18T04:21:14;-6.50;99.90
6538;DHT22;3302;52.508;13.454;2022-12-18T04:23:40;-6.50;99.90
6538;DHT22;3302;52.508;13.454;2022-12-18T04:26:06;-6.60;99.90
6538;DHT22;3302;52.508;13.454;2022-12-18T04:31:22;-6.70;99.90
6538;DHT22;3302;52.508;13.454;2022-12-18T04:33:48;-6.70;99.90
6538;DHT22;3302;52.508;13.454;2022-12-18T04:36:14;-6.70;99.90
6538;DHT22;3302;52.508;13.454;2022-12-18T04:38:40;-6.70;99.90
6538;DHT22;3302;52.508;13.454;2022-12-18T04:41:05;-6.50;99.90
6538;DHT22;3302;52.508;13.454;2022-12-18T04:43:31;-6.60;99.90
6538;DHT22;3302;52.508;13.454;2022-12-18T04:46:03;-6.80;99.90
6538;DHT22;3302;52.508;13.454;2022-12-18T04:48:29;-6.80;99.90
6538;DHT22;3302;52.508;13.454;2022-12-18T04:50:55;-6.70;99.90
6538;DHT22;3302;52.508;13.454;2022-12-18T04:53:21;-6.60;99.90
6538;DHT22;3302;52.508;13.454;2022-12-18T04:55:46;-6.70;99.90
6538;DHT22;3302;52.508;13.454;2022-12-18T04:58:12;-6.70;99.90
6538;DHT22;3302;52.508;13.454;2022-12-18T05:00:38;-6.80;99.90
6538;DHT22;3302;52.508;13.454;2022-12-18T05:03:04;-6.70;99.90
6538;DHT22;3302;52.508;13.454;2022-12-18T05:05:29;-6.70;99.90
6538;DHT22;3302;52.508;13.454;2022-12-18T05:07:55;-6.60;99.90
6538;DHT22;3302;52.508;13.454;2022-12-18T05:10:21;-6.60;99.90
6538;DHT22;3302;52.508;13.454;2022-12-18T05:12:47;-6.60;99.90
6538;DHT22;3302;52.508;13.454;2022-12-18T05:15:28;-6.50;99.90
6538;DHT22;3302;52.508;13.454;2022-12-18T05:17:54;-6.70;99.90
6538;DHT22;3302;52.508;13.454;2022-12-18T05:20:19;-6.60;99.90
6538;DHT22;3302;52.508;13.454;2022-12-18T05:22:45;-6.60;99.90
6538;DHT22;3302;52.508;13.454;2022-12-18T05:25:11;-6.60;99.90
6538;DHT22;3302;52.508;13.454;2022-12-18T05:27:37;-6.60;99.90
6538;DHT22;3302;52.508;13.454;2022-12-18T05:30:03;-6.50;99.90
6538;DHT22;3302;52.508;13.454;2022-12-18T05:32:29;-6.60;99.90
6538;DHT22;3302;52.508;13.454;2022-12-18T05:34:54;-6.50;99.90
6538;DHT22;3302;52.508;13.454;2022-12-18T05:37:22;-6.40;99.90
6538;DHT22;3302;52.508;13.454;2022-12-18T05:39:48;-6.40;99.90
6538;DHT22;3302;52.508;13.454;2022-12-18T05:42:14;-6.30;99.90
6538;DHT22;3302;52.508;13.454;2022-12-18T05:44:40;-6.30;99.90
6538;DHT22;3302;52.508;13.454;2022-12-18T05:47:06;-6.30;99.90
6538;DHT22;3302;52.508;13.454;2022-12-18T05:49:31;-6.20;99.90
6538;DHT22;3302;52.508;13.454;2022-12-18T05:51:57;-6.20;99.90
6538;DHT22;3302;52.508;13.454;2022-12-18T05:54:23;-6.40;99.90
6538;DHT22;3302;52.508;13.454;2022-12-18T05:56:48;-6.40;99.90
6538;DHT22;3302;52.508;13.454;2022-12-18T05:59:14;-6.40;99.90
6538;DHT22;3302;52.508;13.454;2022-12-18T06:01:40;-6.30;99.90
6538;DHT22;3302;52.508;13.454;2022-12-18T06:04:06;-6.30;99.90
6538;DHT22;3302;52.508;13.454;2022-12-18T06:06:32;-6.30;99.90
6538;DHT22;3302;52.508;13.454;2022-12-18T06:08:57;-6.30;99.90
6538;DHT22;3302;52.508;13.454;2022-12-18T06:11:25;-6.20;99.90
6538;DHT22;3302;52.508;13.454;2022-12-18T06:13:52;-6.20;99.90
6538;DHT22;3302;52.508;13.454;2022-12-18T06:16:18;-6.20;99.90
6538;DHT22;3302;52.508;13.454;2022-12-18T06:18:44;-6.20;99.90
6538;DHT22;3302;52.508;13.454;2022-12-18T06:21:10;-6.10;99.90
6538;DHT22;3302;52.508;13.454;2022-12-18T06:23:36;-6.20;99.90
6538;DHT22;3302;52.508;13.454;2022-12-18T06:26:07;-6.20;99.90
6538;DHT22;3302;52.508;13.454;2022-12-18T06:28:33;-6.30;99.90
6538;DHT22;3302;52.508;13.454;2022-12-18T06:30:59;-6.40;99.90
6538;DHT22;3302;52.508;13.454;2022-12-18T06:33:28;-6.30;99.90
6538;DHT22;3302;52.508;13.454;2022-12-18T06:35:54;-6.30;99.90
6538;DHT22;3302;52.508;13.454;2022-12-18T06:38:20;-6.30;99.90
6538;DHT22;3302;52.508;13.454;2022-12-18T06:40:46;-6.30;99.90
6538;DHT22;3302;52.508;13.454;2022-12-18T06:43:11;-6.40;99.90
6538;DHT22;3302;52.508;13.454;2022-12-18T06:45:37;-6.30;99.90
6538;DHT22;3302;52.508;13.454;2022-12-18T06:48:03;-6.40;99.90
6538;DHT22;3302;52.508;13.454;2022-12-18T06:50:29;-6.30;99.90
6538;DHT22;3302;52.508;13.454;2022-12-18T06:52:55;-6.50;99.90
6538;DHT22;3302;52.508;13.454;2022-12-18T06:55:20;-6.50;99.90
6538;DHT22;3302;52.508;13.454;2022-12-18T06:57:46;-6.50;99.90
6538;DHT22;3302;52.508;13.454;2022-12-18T07:00:12;-6.50;99.90
6538;DHT22;3302;52.508;13.454;2022-12-18T07:02:39;-6.50;99.90
6538;DHT22;3302;52.508;13.454;2022-12-18T07:05:06;-6.40;99.90
6538;DHT22;3302;52.508;13.454;2022-12-18T07:07:34;-6.50;99.90
6538;DHT22;3302;52.508;13.454;2022-12-18T07:10:00;-6.50;99.90
6538;DHT22;3302;52.508;13.454;2022-12-18T07:12:27;-6.60;99.90
6538;DHT22;3302;52.508;13.454;2022-12-18T07:14:52;-6.50;99.90
6538;DHT22;3302;52.508;13.454;2022-12-18T07:17:18;-6.60;99.90
6538;DHT22;3302;52.508;13.454;2022-12-18T07:19:44;-6.50;99.90
6538;DHT22;3302;52.508;13.454;2022-12-18T07:22:10;-6.50;99.90
6538;DHT22;3302;52.508;13.454;2022-12-18T07:24:35;-6.40;99.90
6538;DHT22;3302;52.508;13.454;2022-12-18T07:27:01;-6.40;99.90
6538;DHT22;3302;52.508;13.454;2022-12-18T07:29:27;-6.50;99.90
6538;DHT22;3302;52.508;13.454;2022-12-18T07:31:53;-6.40;99.90
6538;DHT22;3302;52.508;13.454;2022-12-18T07:34:19;-6.30;99.90
6538;DHT22;3302;52.508;13.454;2022-12-18T07:36:45;-6.20;99.90
6538;DHT22;3302;52.508;13.454;2022-12-18T07:39:11;-6.20;99.90
6538;DHT22;3302;52.508;13.454;2022-12-18T07:41:38;-6.30;99.90
6538;DHT22;3302;52.508;13.454;2022-12-18T07:44:10;-6.40;99.90
6538;DHT22;3302;52.508;13.454;2022-12-18T07:46:36;-6.40;99.90
6538;DHT22;3302;52.508;13.454;2022-12-18T07:49:02;-6.40;99.90
6538;DHT22;3302;52.508;13.454;2022-12-18T07:51:27;-6.30;99.90
6538;DHT22;3302;52.508;13.454;2022-12-18T07:53:53;-6.30;99.90
6538;DHT22;3302;52.508;13.454;2022-12-18T07:56:20;-6.30;99.90
6538;DHT22;3302;52.508;13.454;2022-12-18T07:58:45;-6.40;99.90
6538;DHT22;3302;52.508;13.454;2022-12-18T08:01:12;-6.30;99.90
6538;DHT22;3302;52.508;13.454;2022-12-18T08:03:39;-6.00;99.90
6538;DHT22;3302;52.508;13.454;2022-12-18T08:06:07;-6.00;99.90
6538;DHT22;3302;52.508;13.454;2022-12-18T08:08:34;-6.20;99.90
6538;DHT22;3302;52.508;13.454;2022-12-18T08:11:00;-6.20;99.90
6538;DHT22;3302;52.508;13.454;2022-12-18T08:13:26;-6.30;99.90
6538;DHT22;3302;52.508;13.454;2022-12-18T08:18:22;-6.10;99.90
6538;DHT22;3302;52.508;13.454;2022-12-18T08:20:48;-6.20;99.90
6538;DHT22;3302;52.508;13.454;2022-12-18T08:23:14;-6.30;99.90
6538;DHT22;3302;52.508;13.454;2022-12-18T08:25:40;-6.30;99.90
6538;DHT22;3302;52.508;13.454;2022-12-18T08:28:06;-6.30;99.90
6538;DHT22;3302;52.508;13.454;2022-12-18T08:30:31;-6.30;99.90
6538;DHT22;3302;52.508;13.454;2022-12-18T08:32:57;-6.20;99.90
6538;DHT22;3302;52.508;13.454;2022-12-18T08:35:23;-6.20;99.90
6538;DHT22;3302;52.508;13.454;2022-12-18T08:37:49;-6.20;99.90
6538;DHT22;3302;52.508;13.454;2022-12-18T08:40:16;-6.30;99.90
6538;DHT22;3302;52.508;13.454;2022-12-18T08:42:41;-6.20;99.90
6538;DHT22;3302;52.508;13.454;2022-12-18T08:45:26;-6.20;99.90
6538;DHT22;3302;52.508;13.454;2022-12-18T08:47:52;-6.20;99.90
6538;DHT22;3302;52.508;13.454;2022-12-18T08:50:17;-6.30;99.90
6538;DHT22;3302;52.508;13.454;2022-12-18T08:52:43;-6.40;99.90
6538;DHT22;3302;52.508;13.454;2022-12-18T08:55:09;-6.20;99.90
6538;DHT22;3302;52.508;13.454;2022-12-18T08:57:35;-6.10;99.90
6538;DHT22;3302;52.508;13.454;2022-12-18T09:00:02;-6.00;99.90
6538;DHT22;3302;52.508;13.454;2022-12-18T09:02:28;-6.10;99.90
6538;DHT22;3302;52.508;13.454;2022-12-18T09:04:53;-6.00;99.90
6538;DHT22;3302;52.508;13.454;2022-12-18T09:07:19;-6.00;99.90
6538;DHT22;3302;52.508;13.454;2022-12-18T09:09:45;-6.00;99.90
6538;DHT22;3302;52.508;13.454;2022-12-18T09:12:11;-6.00;99.90
6538;DHT22;3302;52.508;13.454;2022-12-18T09:14:37;-5.90;99.90
6538;DHT22;3302;52.508;13.454;2022-12-18T09:17:03;-5.90;99.90
6538;DHT22;3302;52.508;13.454;2022-12-18T09:19:29;-5.80;99.90
6538;DHT22;3302;52.508;13.454;2022-12-18T09:21:55;-5.70;99.90
6538;DHT22;3302;52.508;13.454;2022-12-18T09:24:23;-5.70;99.90
6538;DHT22;3302;52.508;13.454;2022-12-18T09:26:53;-5.60;99.90
6538;DHT22;3302;52.508;13.454;2022-12-18T09:29:19;-5.60;99.90
6538;DHT22;3302;52.508;13.454;2022-12-18T09:31:45;-5.60;99.90
6538;DHT22;3302;52.508;13.454;2022-12-18T09:34:12;-5.60;99.90
6538;DHT22;3302;52.508;13.454;2022-12-18T09:36:38;-5.50;99.90
6538;DHT22;3302;52.508;13.454;2022-12-18T09:39:04;-5.40;99.90
6538;DHT22;3302;52.508;13.454;2022-12-18T09:41:41;-5.60;99.90
6538;DHT22;3302;52.508;13.454;2022-12-18T09:44:13;-5.50;99.90
6538;DHT22;3302;52.508;13.454;2022-12-18T09:46:45;-5.50;99.90
6538;DHT22;3302;52.508;13.454;2022-12-18T09:49:16;-5.50;99.90
6538;DHT22;3302;52.508;13.454;2022-12-18T09:52:28;-5.60;99.90
6538;DHT22;3302;52.508;13.454;2022-12-18T09:54:53;-5.50;99.90
6538;DHT22;3302;52.508;13.454;2022-12-18T09:57:22;-5.40;99.90
6538;DHT22;3302;52.508;13.454;2022-12-18T09:59:55;-5.30;99.90
6538;DHT22;3302;52.508;13.454;2022-12-18T10:02:24;-5.20;99.90
6538;DHT22;3302;52.508;13.454;2022-12-18T10:05:12;-5.30;99.90
6538;DHT22;3302;52.508;13.454;2022-12-18T10:10:40;-5.10;99.90
6538;DHT22;3302;52.508;13.454;2022-12-18T10:13:31;-5.10;99.90
6538;DHT22;3302;52.508;13.454;2022-12-18T10:16:19;-5.10;99.90
6538;DHT22;3302;52.508;13.454;2022-12-18T10:19:11;-5.00;99.90
6538;DHT22;3302;52.508;13.454;2022-12-18T10:24:38;-4.90;99.90
6538;DHT22;3302;52.508;13.454;2022-12-18T10:27:15;-4.70;99.90
6538;DHT22;3302;52.508;13.454;2022-12-18T10:29:43;-4.70;99.90
6538;DHT22;3302;52.508;13.454;2022-12-18T10:32:18;-4.70;99.90
6538;DHT22;3302;52.508;13.454;2022-12-18T10:34:49;-4.70;99.90
6538;DHT22;3302;52.508;13.454;2022-12-18T10:37:20;-4.70;99.90
6538;DHT22;3302;52.508;13.454;2022-12-18T10:40:12;-4.60;99.90
6538;DHT22;3302;52.508;13.454;2022-12-18T10:42:39;-4.70;99.90
6538;DHT22;3302;52.508;13.454;2022-12-18T10:45:15;-4.50;99.90
6538;DHT22;3302;52.508;13.454;2022-12-18T10:47:50;-4.50;99.90
6538;DHT22;3302;52.508;13.454;2022-12-18T10:50:36;-4.50;99.90
6538;DHT22;3302;52.508;13.454;2022-12-18T10:53:04;-4.60;99.90
6538;DHT22;3302;52.508;13.454;2022-12-18T10:55:44;-4.60;99.90
6538;DHT22;3302;52.508;13.454;2022-12-18T10:58:35;-4.60;99.90
6538;DHT22;3302;52.508;13.454;2022-12-18T11:01:16;-4.50;99.90
6538;DHT22;3302;52.508;13.454;2022-12-18T11:06:15;-4.40;99.90
6538;DHT22;3302;52.508;13.454;2022-12-18T11:08:46;-4.50;99.90
6538;DHT22;3302;52.508;13.454;2022-12-18T11:11:24;-4.70;99.90
6538;DHT22;3302;52.508;13.454;2022-12-18T11:16:26;-4.60;99.90
6538;DHT22;3302;52.508;13.454;2022-12-18T11:18:52;-4.50;99.90
6538;DHT22;3302;52.508;13.454;2022-12-18T11:21:18;-4.60;99.90
6538;DHT22;3302;52.508;13.454;2022-12-18T11:23:52;-4.60;99.90
6538;DHT22;3302;52.508;13.454;2022-12-18T11:26:19;-4.70;99.90
6538;DHT22;3302;52.508;13.454;2022-12-18T11:29:08;-4.60;99.90
6538;DHT22;3302;52.508;13.454;2022-12-18T11:31:35;-4.50;99.90
6538;DHT22;3302;52.508;13.454;2022-12-18T11:34:25;-4.40;99.90
6538;DHT22;3302;52.508;13.454;2022-12-18T11:36:53;-4.40;99.90
6538;DHT22;3302;52.508;13.454;2022-12-18T11:39:42;-4.60;99.90
6538;DHT22;3302;52.508;13.454;2022-12-18T11:42:35;-4.70;99.90
6538;DHT22;3302;52.508;13.454;2022-12-18T11:50:20;-4.50;99.90
6538;DHT22;3302;52.508;13.454;2022-12-18T11:52:47;-4.60;99.90
6538;DHT22;3302;52.508;13.454;2022-12-18T11:55:16;-4.60;99.90
6538;DHT22;3302;52.508;13.454;2022-12-18T12:00:22;-4.50;99.90
6538;DHT22;3302;52.508;13.454;2022-12-18T12:03:04;-4.60;99.90
6538;DHT22;3302;52.508;13.454;2022-12-18T12:11:34;-4.40;99.90
6538;DHT22;3302;52.508;13.454;2022-12-18T12:17:04;-4.50;99.90
6538;DHT22;3302;52.508;13.454;2022-12-18T12:24:59;-4.30;99.90
6538;DHT22;3302;52.508;13.454;2022-12-18T12:30:39;-4.30;99.90
6538;DHT22;3302;52.508;13.454;2022-12-18T12:34:01;-4.20;99.90
6538;DHT22;3302;52.508;13.454;2022-12-18T12:36:52;-4.30;99.90
6538;DHT22;3302;52.508;13.454;2022-12-18T12:39:26;-4.20;99.90
6538;DHT22;3302;52.508;13.454;2022-12-18T12:41:54;-4.20;99.90
6538;DHT22;3302;52.508;13.454;2022-12-18T12:44:43;-4.20;99.90
6538;DHT22;3302;52.508;13.454;2022-12-18T12:47:35;-4.20;99.90
6538;DHT22;3302;52.508;13.454;2022-12-18T12:50:04;-4.10;99.90
6538;DHT22;3302;52.508;13.454;2022-12-18T12:52:35;-4.10;99.90
6538;DHT22;3302;52.508;13.454;2022-12-18T12:55:05;-4.10;99.90
6538;DHT22;3302;52.508;13.454;2022-12-18T12:57:37;-4.20;99.90
6538;DHT22;3302;52.508;13.454;2022-12-18T13:00:10;-4.20;99.90
6538;DHT22;3302;52.508;13.454;2022-12-18T13:05:34;-4.10;99.90
6538;DHT22;3302;52.508;13.454;2022-12-18T13:08:08;-4.20;99.90
6538;DHT22;3302;52.508;13.454;2022-12-18T13:10:39;-4.20;99.90
6538;DHT22;3302;52.508;13.454;2022-12-18T13:13:10;-4.20;99.90
6538;DHT22;3302;52.508;13.454;2022-12-18T13:15:42;-4.00;99.90
6538;DHT22;3302;52.508;13.454;2022-12-18T13:21:32;-4.00;99.90
6538;DHT22;3302;52.508;13.454;2022-12-18T13:23:50;-4.00;99.90
6538;DHT22;3302;52.508;13.454;2022-12-18T13:31:12;-3.90;99.90
6538;DHT22;3302;52.508;13.454;2022-12-18T13:33:43;-4.00;99.90
6538;DHT22;3302;52.508;13.454;2022-12-18T13:36:29;-4.00;99.90
6538;DHT22;3302;52.508;13.454;2022-12-18T13:41:45;-4.10;99.90
6538;DHT22;3302;52.508;13.454;2022-12-18T13:44:34;-4.10;99.90
6538;DHT22;3302;52.508;13.454;2022-12-18T13:47:02;-4.10;99.90
6538;DHT22;3302;52.508;13.454;2022-12-18T13:49:43;-4.10;99.90
6538;DHT22;3302;52.508;13.454;2022-12-18T13:52:18;-4.00;99.90
6538;DHT22;3302;52.508;13.454;2022-12-18T13:54:49;-4.00;99.90
6538;DHT22;3302;52.508;13.454;2022-12-18T13:57:28;-3.90;99.90
6538;DHT22;3302;52.508;13.454;2022-12-18T13:59:54;-3.80;99.90
6538;DHT22;3302;52.508;13.454;2022-12-18T14:02:26;-3.90;99.90
6538;DHT22;3302;52.508;13.454;2022-12-18T14:05:26;-3.90;99.90
6538;DHT22;3302;52.508;13.454;2022-12-18T14:07:52;-4.00;99.90
6538;DHT22;3302;52.508;13.454;2022-12-18T14:10:19;-4.00;99.90
6538;DHT22;3302;52.508;13.454;2022-12-18T14:12:47;-4.00;99.90
6538;DHT22;3302;52.508;13.454;2022-12-18T14:18:03;-4.00;99.90
6538;DHT22;3302;52.508;13.454;2022-12-18T14:20:35;-4.00;99.90
6538;DHT22;3302;52.508;13.454;2022-12-18T14:23:01;-4.10;99.90
6538;DHT22;3302;52.508;13.454;2022-12-18T14:25:28;-4.00;99.90
6538;DHT22;3302;52.508;13.454;2022-12-18T14:28:13;-4.00;99.90
6538;DHT22;3302;52.508;13.454;2022-12-18T14:30:41;-4.00;99.90
6538;DHT22;3302;52.508;13.454;2022-12-18T14:33:13;-4.10;99.90
6538;DHT22;3302;52.508;13.454;2022-12-18T14:35:53;-4.00;99.90
6538;DHT22;3302;52.508;13.454;2022-12-18T14:38:29;-4.00;99.90
6538;DHT22;3302;52.508;13.454;2022-12-18T14:41:01;-4.00;99.90
6538;DHT22;3302;52.508;13.454;2022-12-18T14:43:31;-4.20;99.90
6538;DHT22;3302;52.508;13.454;2022-12-18T14:45:57;-4.20;99.90
6538;DHT22;3302;52.508;13.454;2022-12-18T14:48:41;-4.30;99.90
6538;DHT22;3302;52.508;13.454;2022-12-18T14:51:28;-4.40;99.90
6538;DHT22;3302;52.508;13.454;2022-12-18T14:54:03;-4.40;99.90
6538;DHT22;3302;52.508;13.454;2022-12-18T14:56:42;-4.40;99.90
6538;DHT22;3302;52.508;13.454;2022-12-18T15:01:46;-4.40;99.90
6538;DHT22;3302;52.508;13.454;2022-12-18T15:07:16;-4.40;99.90
6538;DHT22;3302;52.508;13.454;2022-12-18T15:12:35;-4.30;99.90
6538;DHT22;3302;52.508;13.454;2022-12-18T15:15:02;-4.20;99.90
6538;DHT22;3302;52.508;13.454;2022-12-18T15:17:28;-4.40;99.90
6538;DHT22;3302;52.508;13.454;2022-12-18T15:20:03;-4.30;99.90
6538;DHT22;3302;52.508;13.454;2022-12-18T15:22:35;-4.40;99.90
6538;DHT22;3302;52.508;13.454;2022-12-18T15:25:03;-4.40;99.90
6538;DHT22;3302;52.508;13.454;2022-12-18T15:27:46;-4.30;99.90
6538;DHT22;3302;52.508;13.454;2022-12-18T15:30:18;-4.20;99.90
6538;DHT22;3302;52.508;13.454;2022-12-18T15:32:45;-4.20;99.90
6538;DHT22;3302;52.508;13.454;2022-12-18T15:35:21;-4.20;99.90
6538;DHT22;3302;52.508;13.454;2022-12-18T15:37:48;-4.20;99.90
6538;DHT22;3302;52.508;13.454;2022-12-18T15:40:19;-4.20;99.90
6538;DHT22;3302;52.508;13.454;2022-12-18T15:42:46;-4.20;99.90
6538;DHT22;3302;52.508;13.454;2022-12-18T15:45:31;-4.30;99.90
6538;DHT22;3302;52.508;13.454;2022-12-18T15:47:57;-4.20;99.90
6538;DHT22;3302;52.508;13.454;2022-12-18T15:50:23;-4.30;99.90
6538;DHT22;3302;52.508;13.454;2022-12-18T15:52:51;-4.40;99.90
6538;DHT22;3302;52.508;13.454;2022-12-18T15:55:23;-4.30;99.90
6538;DHT22;3302;52.508;13.454;2022-12-18T15:58:09;-4.40;99.90
6538;DHT22;3302;52.508;13.454;2022-12-18T16:00:38;-4.40;99.90
6538;DHT22;3302;52.508;13.454;2022-12-18T16:03:05;-4.50;99.90
6538;DHT22;3302;52.508;13.454;2022-12-18T16:05:31;-4.50;99.90
6538;DHT22;3302;52.508;13.454;2022-12-18T16:07:57;-4.50;99.90
6538;DHT22;3302;52.508;13.454;2022-12-18T16:10:24;-4.50;99.90
6538;DHT22;3302;52.508;13.454;2022-12-18T16:12:53;-4.40;99.90
6538;DHT22;3302;52.508;13.454;2022-12-18T16:15:19;-4.40;99.90
6538;DHT22;3302;52.508;13.454;2022-12-18T16:17:46;-4.40;99.90
6538;DHT22;3302;52.508;13.454;2022-12-18T16:20:17;-4.40;99.90
6538;DHT22;3302;52.508;13.454;2022-12-18T16:22:49;-4.40;99.90
6538;DHT22;3302;52.508;13.454;2022-12-18T16:25:27;-4.40;99.90
6538;DHT22;3302;52.508;13.454;2022-12-18T16:27:54;-4.30;99.90
6538;DHT22;3302;52.508;13.454;2022-12-18T16:30:26;-4.40;99.90
6538;DHT22;3302;52.508;13.454;2022-12-18T16:32:57;-4.40;99.90
6538;DHT22;3302;52.508;13.454;2022-12-18T16:35:23;-4.30;99.90
6538;DHT22;3302;52.508;13.454;2022-12-18T16:37:50;-4.30;99.90
6538;DHT22;3302;52.508;13.454;2022-12-18T16:40:16;-4.30;99.90
6538;DHT22;3302;52.508;13.454;2022-12-18T16:42:44;-4.30;99.90
6538;DHT22;3302;52.508;13.454;2022-12-18T16:45:14;-4.30;99.90
6538;DHT22;3302;52.508;13.454;2022-12-18T16:47:40;-4.40;99.90
6538;DHT22;3302;52.508;13.454;2022-12-18T16:50:06;-4.30;99.90
6538;DHT22;3302;52.508;13.454;2022-12-18T16:52:33;-4.30;99.90
6538;DHT22;3302;52.508;13.454;2022-12-18T16:54:59;-4.30;99.90
6538;DHT22;3302;52.508;13.454;2022-12-18T16:57:25;-4.30;99.90
6538;DHT22;3302;52.508;13.454;2022-12-18T16:59:51;-4.40;99.90
6538;DHT22;3302;52.508;13.454;2022-12-18T17:02:25;-4.30;99.90
6538;DHT22;3302;52.508;13.454;2022-12-18T17:04:55;-4.40;99.90
6538;DHT22;3302;52.508;13.454;2022-12-18T17:07:21;-4.40;99.90
6538;DHT22;3302;52.508;13.454;2022-12-18T17:09:48;-4.30;99.90
6538;DHT22;3302;52.508;13.454;2022-12-18T17:12:15;-4.30;99.90
6538;DHT22;3302;52.508;13.454;2022-12-18T17:14:40;-4.40;99.90
6538;DHT22;3302;52.508;13.454;2022-12-18T17:17:06;-4.40;99.90
6538;DHT22;3302;52.508;13.454;2022-12-18T17:19:32;-4.40;99.90
6538;DHT22;3302;52.508;13.454;2022-12-18T17:21:58;-4.40;99.90
6538;DHT22;3302;52.508;13.454;2022-12-18T17:24:24;-4.30;99.90
6538;DHT22;3302;52.508;13.454;2022-12-18T17:26:50;-4.40;99.90
6538;DHT22;3302;52.508;13.454;2022-12-18T17:29:18;-4.40;99.90
6538;DHT22;3302;52.508;13.454;2022-12-18T17:31:46;-4.40;99.90
6538;DHT22;3302;52.508;13.454;2022-12-18T17:34:13;-4.40;99.90
6538;DHT22;3302;52.508;13.454;2022-12-18T17:36:39;-4.50;99.90